createdAt,value
2017-11-25T00:05:56.240Z,3.8
2017-11-25T00:22:44.183Z,3.8
2017-11-25T00:39:32.089Z,3.7
2017-11-25T00:56:20.803Z,3.7
2017-11-25T01:13:07.827Z,3.7
2017-11-25T01:29:55.717Z,3.7
2017-11-25T01:46:42.997Z,3.7
2017-11-25T02:03:29.916Z,3.7
2017-11-25T02:20:17.011Z,3.7
2017-11-25T02:37:04.253Z,3.7
2017-11-25T02:53:51.101Z,3.7
2017-11-25T03:10:38.010Z,3.7
2017-11-25T03:27:25.063Z,3.7
2017-11-25T03:44:11.992Z,3.7
2017-11-25T04:00:58.831Z,3.7
2017-11-25T04:17:45.732Z,3.7
2017-11-25T04:34:32.538Z,3.7
2017-11-25T04:51:19.370Z,3.7
2017-11-25T05:08:07.140Z,3.7
2017-11-25T05:24:52.988Z,3.7
2017-11-25T05:41:39.569Z,3.7
2017-11-25T05:58:26.195Z,3.7
2017-11-25T06:15:12.994Z,3.6
2017-11-25T06:31:59.726Z,3.6
2017-11-25T06:48:46.641Z,3.6
2017-11-25T07:05:33.538Z,3.6
2017-11-25T07:22:20.370Z,3.6
2017-11-25T07:39:07.319Z,3.6
2017-11-25T07:55:54.506Z,3.6
2017-11-25T08:12:40.811Z,3.6
2017-11-25T08:29:27.503Z,3.7
2017-11-25T08:46:14.446Z,3.7
2017-11-25T09:03:01.505Z,3.7
2017-11-25T09:19:48.715Z,3.8
2017-11-25T09:36:36.224Z,3.8
2017-11-25T09:53:23.876Z,3.9
2017-11-25T10:10:11.553Z,3.9
2017-11-25T10:26:59.197Z,3.9
2017-11-25T10:43:46.909Z,4.0
2017-11-25T11:00:34.626Z,4.1
2017-11-25T11:17:22.315Z,4.3
2017-11-25T11:34:10.823Z,4.4
2017-11-25T11:50:59.211Z,4.5
2017-11-25T12:07:47.630Z,4.5
2017-11-25T12:24:36.077Z,4.5
2017-11-25T12:41:24.467Z,4.5
2017-11-25T12:58:13.012Z,4.5
2017-11-25T13:15:01.060Z,4.5
2017-11-25T13:31:49.603Z,4.5
2017-11-25T13:48:37.890Z,4.5
2017-11-25T14:00:23.701Z,4.5
2017-11-25T14:17:11.986Z,4.4
2017-11-25T14:34:00.217Z,4.4
2017-11-25T14:50:48.421Z,4.4
2017-11-25T15:07:36.735Z,4.4
2017-11-25T15:24:25.089Z,4.4
2017-11-25T15:41:13.354Z,4.3
2017-11-25T15:58:01.669Z,4.3
2017-11-25T16:14:50.122Z,4.3
2017-11-25T16:31:38.521Z,4.3
2017-11-25T16:48:26.939Z,4.3
2017-11-25T17:05:14.976Z,4.2
2017-11-25T17:22:02.661Z,4.2
2017-11-25T17:38:50.421Z,4.2
2017-11-25T17:55:38.259Z,4.2
2017-11-25T18:12:26.165Z,4.2
2017-11-25T18:29:14.402Z,4.2
2017-11-25T18:46:01.917Z,4.2
2017-11-25T19:02:49.851Z,4.2
2017-11-25T19:19:37.697Z,4.2
2017-11-25T19:36:25.676Z,4.2
2017-11-25T19:53:13.585Z,4.1
2017-11-25T20:10:01.263Z,4.1
2017-11-25T20:26:49.227Z,4.1
2017-11-25T20:43:36.978Z,4.1
2017-11-25T21:00:24.981Z,4.1
2017-11-25T21:17:12.939Z,4.1
2017-11-25T21:34:00.617Z,4.1
2017-11-25T21:50:48.365Z,4.1
2017-11-25T22:07:36.131Z,4.1
2017-11-25T22:24:23.953Z,4.1
2017-11-25T22:41:11.725Z,4.0
2017-11-25T22:58:00.111Z,4.0
2017-11-25T23:14:46.969Z,4.0
2017-11-25T23:31:34.591Z,4.0
2017-11-25T23:48:22.111Z,4.0
